Monday, June 25, 2018, 12:16 AM EDT
Back to Local

KDXR, Danbury Municipal Airport

Location: Danbury, CT, United States Lat: 41.367
Local Time: 12:16 AM EDT ( 4:16 GMT) Lon: -73.483
Time Zone: US/Eastern Elev: 459 ft

Show me the last for .
Show Decoded

2018-06-24 23:53 METAR KDXR 250353Z AUTO 22004KT 9SM OVC007 20/20 A2983 RMK AO2 CIG 003V010
                 SLP097 T02000200 =
2018-06-24 22:53 METAR KDXR 250253Z AUTO 26003KT 9SM OVC005 20/20 A2983 RMK AO2 SLP097 60022
                 T02000200 51004 =
2018-06-24 21:53 METAR KDXR 250153Z 00000KT 10SM BKN006 20/20 A2983 RMK AO2 SLP097 T02000200 =
2018-06-24 21:49 METAR KDXR 250149Z 00000KT 10SM BKN006 20/20 A2983 RMK AO2 =
2018-06-24 21:35 METAR KDXR 250135Z 16003KT 10SM FEW006 20/20 A2982 RMK AO2 T02000200 =
2018-06-24 20:53 METAR KDXR 250053Z 00000KT 10SM SCT019 BKN100 21/20 A2982 RMK AO2 LTG DSNT E AND
                 SE RAB00E53 TSB03E32 SLP094 P0022 T02060200 =
2018-06-24 20:42 METAR KDXR 250042Z 00000KT 3SM VCTS -RA BR FEW019 BKN023 OVC100 21/21 A2982 RMK
                 AO2 LTG DSNT SE AND S RAB00 TSB03E32 P0022 T02060206 =
2018-06-24 20:32 METAR KDXR 250032Z VRB03KT 2 1/2SM VCTS RA BR SCT017 BKN040 OVC055 21/20 A2981
                 RMK AO2 LTG DSNT SE AND S RAB00 TSB03E32 P0016 T02110200 =
2018-06-24 20:09 METAR KDXR 250009Z 00000KT 4SM TSRA BR SCT050 BKN090 OVC110 21/21 A2982 RMK AO2
                 LTG DSNT SW-NW RAB00 TSB03 P0003 T02110206 =
2018-06-24 19:53 METAR KDXR 242353Z 00000KT 10SM VCTS FEW050 SCT080 BKN110 21/20 A2980 RMK AO2
                 LTG DSNT ALQDS SLP089 60062 T02110200 10272 20206 50001 =
2018-06-24 18:53 METAR KDXR 242253Z 05003KT 10SM SCT043 BKN075 22/21 A2981 RMK AO2 LTG DSNT E
                 RAE23 TSE08B18E33 SLP091 P0053 T02170206 =
2018-06-24 18:51 METAR KDXR 242251Z 06003KT 10SM SCT043 BKN075 22/20 A2981 RMK AO2 LTG DSNT E
                 RAE23 TSE08B18E33 P0053 =
2018-06-24 18:39 METAR KDXR 242239Z 11005KT 10SM VCTS BKN043 BKN075 22/20 A2981 RMK AO2 LTG DSNT
                 NE RAE23 TSE08B18E33 P0053 T02170200 =
2018-06-24 18:23 METAR KDXR 242223Z 15003KT 10SM TS SCT011 BKN041 21/21 A2981 RMK AO2 LTG DSNT E
                 RAE23 TSE08B18 P0053 T02110206 =
2018-06-24 18:20 METAR KDXR 242220Z 13003KT 3SM -TSRA BR BKN011 OVC041 21/21 A2981 RMK AO2 LTG
                 DSNT NE AND E TSE08B18 P0053 T02110206 =
2018-06-24 18:18 METAR KDXR 242218Z 00000KT 1 1/4SM -TSRA BR FEW008 BKN011 OVC041 21/21 A2981 RMK
                 AO2 LTG DSNT NE AND E TSE08B18 P0053 T02110206 =
2018-06-24 18:10 METAR KDXR 242210Z 06003KT 1/4SM VCTS +RA FG BKN011 BKN017 OVC023 21/21 A2981
                 RMK AO2 LTG DSNT NE TSE08 P0052 T02060206 =
2018-06-24 18:04 METAR KDXR 242204Z 25004KT 1/4SM +TSRA FG BKN009 BKN015 OVC025 21/20 A2982 RMK
                 AO2 LTG DSNT NE P0030 T02110200 =
2018-06-24 17:55 METAR KDXR 242155Z VRB04G25KT 3/4SM +TSRA BR SCT015 BKN024 BKN040 22/20 A2980
                 RMK AO2 LTG DSNT NE P0004 T02170200 =
2018-06-24 17:53 METAR KDXR 242153Z VRB05G25KT 1 1/4SM +TSRA BR SCT017 BKN026 BKN040 22/20 A2980
                 RMK AO2 LTG DSNT NE RAB01E11B49 TSB53 SLP088 P0009 T02220200 =
2018-06-24 17:51 METAR KDXR 242151Z 33011G25KT 310V020 2 1/2SM -RA BR FEW012 BKN024 BKN042 22/20
                 A2980 RMK AO2 LTG DSNT NE RAB01E11B49 P0005 =
2018-06-24 16:53 METAR KDXR 242053Z 20008KT 10SM FEW100 26/21 A2978 RMK AO2 LTG DSNT NW-NE SLP082
                 T02560206 56010 =
2018-06-24 15:53 METAR KDXR 241953Z 18011G19KT 8SM FEW028 SCT038 25/20 A2979 RMK AO2 LTG DSNT NW
                 SLP085 T02500200 =
2018-06-24 14:53 METAR KDXR 241853Z 16010KT 10SM FEW033 SCT044 BKN055 26/21 A2980 RMK AO2 SLP087
                 T02610206 =
2018-06-24 13:53 METAR KDXR 241753Z 23007KT 180V260 10SM SCT029 BKN038 27/20 A2981 RMK AO2 SLP091
                 T02670200 10267 20178 58008 =
2018-06-24 12:53 METAR KDXR 241653Z 24007KT 10SM BKN060 26/19 A2982 RMK AO2 SLP096 T02560194 =
2018-06-24 12:39 METAR KDXR 241639Z 26004KT 10SM SCT025 BKN060 26/19 A2983 RMK AO2 T02560194 =
2018-06-24 11:53 METAR KDXR 241553Z 26007KT 10SM BKN023 24/19 A2984 RMK AO2 SLP103 T02440189 =
2018-06-24 11:32 METAR KDXR 241532Z 26007KT 200V270 10SM BKN022 BKN030 24/19 A2984 RMK AO2
                 T02440189 =
2018-06-24 10:53 METAR KDXR 241453Z 00000KT 10SM SCT036 23/19 A2984 RMK AO2 SLP100 T02280194
                 58006 =
2018-06-24 10:25 METAR KDXR 241425Z 24007KT 9SM SCT013 OVC036 22/18 A2985 RMK AO2 T02170183 =
2018-06-24 09:53 METAR KDXR 241353Z 24005KT 9SM BKN012 OVC037 21/18 A2985 RMK AO2 SLP104
                 T02110183 =
2018-06-24 09:39 METAR KDXR 241339Z 25003KT 8SM SCT010 OVC037 21/18 A2985 RMK AO2 T02060183 =
2018-06-24 09:29 METAR KDXR 241329Z 22003KT 7SM BKN010 BKN030 OVC040 20/18 A2985 RMK AO2
                 T02000178 =
2018-06-24 08:53 METAR KDXR 241253Z 23004KT 6SM BR OVC007 19/18 A2986 RMK AO2 SLP109 T01890178 =
2018-06-24 07:53 METAR KDXR 241153Z 23006KT 4SM BR OVC006 18/17 A2985 RMK AO2 SLP107 T01780172
                 10178 20161 53007 =
2018-06-24 06:53 METAR KDXR 241053Z 24006KT 5SM BR OVC005 17/17 A2984 RMK AO2 SLP103 T01720167 =
2018-06-24 06:18 METAR KDXR 241018Z AUTO 23003KT 7SM OVC004 17/17 A2984 RMK AO2 T01720167 =
2018-06-24 05:53 METAR KDXR 240953Z AUTO 21003KT 8SM OVC005 17/16 A2983 RMK AO2 SLP098 T01720161
                 =
2018-06-24 04:53 METAR KDXR 240853Z AUTO 00000KT 10SM OVC006 17/16 A2983 RMK AO2 SLP100 T01670161
                 55005 =
2018-06-24 04:08 METAR KDXR 240808Z AUTO 00000KT 9SM OVC009 17/16 A2983 RMK AO2 CIG 006V012
                 T01670161 =
2018-06-24 03:53 METAR KDXR 240753Z AUTO 00000KT 8SM FEW006 OVC011 16/16 A2982 RMK AO2 SLP096
                 T01610156 =
2018-06-24 02:53 METAR KDXR 240653Z AUTO 00000KT 9SM OVC006 16/16 A2983 RMK AO2 SLP099 T01610156
                 =
2018-06-24 01:53 METAR KDXR 240553Z AUTO 00000KT 9SM OVC007 16/16 A2985 RMK AO2 CIG 005V009
                 SLP104 T01610156 10167 20161 56004 =
2018-06-24 00:53 METAR KDXR 240453Z AUTO 00000KT 10SM OVC006 16/16 A2985 RMK AO2 SLP107 T01610156
                 401720144 =

Support USWX by starting your Amazon purchase here.